sensor_id;sensor_type;location;lat;lon;timestamp;P1;durP1;ratioP1;P2;durP2;ratioP2
77022;SDS011;65952;51.440;-2.054;2023-04-10T00:00:30;35.90;;;14.38;;
77022;SDS011;65952;51.440;-2.054;2023-04-10T00:02:56;32.17;;;15.38;;
77022;SDS011;65952;51.440;-2.054;2023-04-10T00:05:23;30.95;;;14.35;;
77022;SDS011;65952;51.440;-2.054;2023-04-10T00:07:49;32.58;;;14.45;;
77022;SDS011;65952;51.440;-2.054;2023-04-10T00:10:14;37.42;;;15.32;;
77022;SDS011;65952;51.440;-2.054;2023-04-10T00:12:40;31.02;;;14.60;;
77022;SDS011;65952;51.440;-2.054;2023-04-10T00:15:06;32.30;;;14.32;;
77022;SDS011;65952;51.440;-2.054;2023-04-10T00:17:32;32.95;;;15.68;;
77022;SDS011;65952;51.440;-2.054;2023-04-10T00:19:57;36.33;;;15.18;;
77022;SDS011;65952;51.440;-2.054;2023-04-10T00:22:23;31.73;;;14.65;;
77022;SDS011;65952;51.440;-2.054;2023-04-10T00:24:49;31.15;;;13.93;;
77022;SDS011;65952;51.440;-2.054;2023-04-10T00:27:15;31.75;;;15.13;;
77022;SDS011;65952;51.440;-2.054;2023-04-10T00:29:40;33.75;;;15.18;;
77022;SDS011;65952;51.440;-2.054;2023-04-10T00:32:06;32.92;;;14.73;;
77022;SDS011;65952;51.440;-2.054;2023-04-10T00:34:31;33.60;;;16.20;;
77022;SDS011;65952;51.440;-2.054;2023-04-10T00:36:57;36.80;;;14.80;;
77022;SDS011;65952;51.440;-2.054;2023-04-10T00:39:23;32.42;;;14.10;;
77022;SDS011;65952;51.440;-2.054;2023-04-10T00:41:48;33.20;;;14.40;;
77022;SDS011;65952;51.440;-2.054;2023-04-10T00:44:14;34.08;;;13.88;;
77022;SDS011;65952;51.440;-2.054;2023-04-10T00:46:39;36.80;;;15.00;;
77022;SDS011;65952;51.440;-2.054;2023-04-10T00:49:05;33.53;;;14.40;;
77022;SDS011;65952;51.440;-2.054;2023-04-10T00:51:31;32.38;;;15.10;;
77022;SDS011;65952;51.440;-2.054;2023-04-10T00:53:56;30.45;;;13.65;;
77022;SDS011;65952;51.440;-2.054;2023-04-10T00:56:25;31.20;;;13.52;;
77022;SDS011;65952;51.440;-2.054;2023-04-10T00:58:50;28.75;;;14.13;;
77022;SDS011;65952;51.440;-2.054;2023-04-10T01:01:16;28.77;;;13.88;;
77022;SDS011;65952;51.440;-2.054;2023-04-10T01:03:41;30.27;;;12.73;;
77022;SDS011;65952;51.440;-2.054;2023-04-10T01:17:38;30.65;;;13.10;;
77022;SDS011;65952;51.440;-2.054;2023-04-10T01:20:29;25.45;;;12.38;;
77022;SDS011;65952;51.440;-2.054;2023-04-10T01:26:06;25.92;;;11.50;;
77022;SDS011;65952;51.440;-2.054;2023-04-10T01:31:06;25.33;;;12.85;;
77022;SDS011;65952;51.440;-2.054;2023-04-10T01:33:39;25.38;;;11.48;;
77022;SDS011;65952;51.440;-2.054;2023-04-10T01:36:11;21.02;;;11.38;;
77022;SDS011;65952;51.440;-2.054;2023-04-10T01:38:42;20.60;;;11.23;;
77022;SDS011;65952;51.440;-2.054;2023-04-10T01:41:09;28.52;;;12.27;;
77022;SDS011;65952;51.440;-2.054;2023-04-10T01:43:34;26.13;;;12.27;;
77022;SDS011;65952;51.440;-2.054;2023-04-10T01:46:02;24.00;;;10.90;;
77022;SDS011;65952;51.440;-2.054;2023-04-10T01:48:28;21.20;;;10.30;;
77022;SDS011;65952;51.440;-2.054;2023-04-10T01:50:55;19.35;;;10.13;;
77022;SDS011;65952;51.440;-2.054;2023-04-10T01:53:22;22.88;;;11.88;;
77022;SDS011;65952;51.440;-2.054;2023-04-10T01:55:49;20.13;;;10.52;;
77022;SDS011;65952;51.440;-2.054;2023-04-10T01:58:15;22.60;;;11.20;;
77022;SDS011;65952;51.440;-2.054;2023-04-10T02:00:41;23.60;;;11.32;;
77022;SDS011;65952;51.440;-2.054;2023-04-10T02:03:07;23.90;;;10.93;;
77022;SDS011;65952;51.440;-2.054;2023-04-10T02:08:35;20.60;;;10.20;;
77022;SDS011;65952;51.440;-2.054;2023-04-10T02:13:33;21.45;;;10.60;;
77022;SDS011;65952;51.440;-2.054;2023-04-10T02:16:00;22.05;;;10.20;;
77022;SDS011;65952;51.440;-2.054;2023-04-10T02:18:31;21.02;;;9.75;;
77022;SDS011;65952;51.440;-2.054;2023-04-10T02:20:58;20.92;;;9.95;;
77022;SDS011;65952;51.440;-2.054;2023-04-10T02:23:25;20.92;;;9.05;;
77022;SDS011;65952;51.440;-2.054;2023-04-10T02:25:50;17.00;;;8.55;;
77022;SDS011;65952;51.440;-2.054;2023-04-10T02:28:16;18.80;;;8.40;;
77022;SDS011;65952;51.440;-2.054;2023-04-10T02:30:41;16.63;;;7.93;;
77022;SDS011;65952;51.440;-2.054;2023-04-10T02:33:07;13.65;;;7.88;;
77022;SDS011;65952;51.440;-2.054;2023-04-10T02:35:33;15.45;;;8.50;;
77022;SDS011;65952;51.440;-2.054;2023-04-10T02:37:58;19.55;;;8.43;;
77022;SDS011;65952;51.440;-2.054;2023-04-10T02:40:23;13.75;;;7.40;;
77022;SDS011;65952;51.440;-2.054;2023-04-10T02:42:49;16.75;;;6.97;;
77022;SDS011;65952;51.440;-2.054;2023-04-10T02:45:14;14.55;;;6.55;;
77022;SDS011;65952;51.440;-2.054;2023-04-10T02:47:40;11.60;;;6.22;;
77022;SDS011;65952;51.440;-2.054;2023-04-10T02:50:05;12.25;;;5.85;;
77022;SDS011;65952;51.440;-2.054;2023-04-10T02:52:32;11.57;;;6.38;;
77022;SDS011;65952;51.440;-2.054;2023-04-10T02:54:57;13.25;;;5.95;;
77022;SDS011;65952;51.440;-2.054;2023-04-10T02:57:23;9.57;;;5.18;;
77022;SDS011;65952;51.440;-2.054;2023-04-10T02:59:49;9.23;;;4.88;;
77022;SDS011;65952;51.440;-2.054;2023-04-10T03:02:15;9.40;;;4.90;;
77022;SDS011;65952;51.440;-2.054;2023-04-10T03:04:41;9.60;;;4.95;;
77022;SDS011;65952;51.440;-2.054;2023-04-10T03:07:07;7.97;;;4.10;;
77022;SDS011;65952;51.440;-2.054;2023-04-10T03:09:32;6.53;;;3.42;;
77022;SDS011;65952;51.440;-2.054;2023-04-10T03:11:58;6.90;;;2.88;;
77022;SDS011;65952;51.440;-2.054;2023-04-10T03:14:23;5.63;;;2.92;;
77022;SDS011;65952;51.440;-2.054;2023-04-10T03:16:49;5.60;;;2.78;;
77022;SDS011;65952;51.440;-2.054;2023-04-10T03:19:14;5.47;;;2.60;;
77022;SDS011;65952;51.440;-2.054;2023-04-10T03:21:40;6.15;;;2.78;;
77022;SDS011;65952;51.440;-2.054;2023-04-10T03:24:06;5.82;;;2.40;;
77022;SDS011;65952;51.440;-2.054;2023-04-10T03:26:31;4.35;;;2.10;;
77022;SDS011;65952;51.440;-2.054;2023-04-10T03:28:57;4.82;;;2.42;;
77022;SDS011;65952;51.440;-2.054;2023-04-10T03:31:22;5.15;;;2.38;;
77022;SDS011;65952;51.440;-2.054;2023-04-10T03:33:48;4.07;;;1.92;;
77022;SDS011;65952;51.440;-2.054;2023-04-10T03:36:13;5.15;;;2.42;;
77022;SDS011;65952;51.440;-2.054;2023-04-10T03:38:39;3.45;;;1.83;;
77022;SDS011;65952;51.440;-2.054;2023-04-10T03:41:04;4.22;;;2.30;;
77022;SDS011;65952;51.440;-2.054;2023-04-10T03:43:30;4.75;;;1.90;;
77022;SDS011;65952;51.440;-2.054;2023-04-10T03:45:56;5.00;;;2.03;;
77022;SDS011;65952;51.440;-2.054;2023-04-10T03:48:21;4.55;;;2.22;;
77022;SDS011;65952;51.440;-2.054;2023-04-10T03:54:08;5.07;;;2.00;;
77022;SDS011;65952;51.440;-2.054;2023-04-10T03:56:34;3.83;;;2.00;;
77022;SDS011;65952;51.440;-2.054;2023-04-10T03:59:00;4.45;;;2.00;;
77022;SDS011;65952;51.440;-2.054;2023-04-10T04:01:25;3.53;;;1.95;;
77022;SDS011;65952;51.440;-2.054;2023-04-10T04:03:51;3.97;;;2.47;;
77022;SDS011;65952;51.440;-2.054;2023-04-10T04:06:16;4.57;;;2.10;;
77022;SDS011;65952;51.440;-2.054;2023-04-10T04:08:42;3.58;;;1.88;;
77022;SDS011;65952;51.440;-2.054;2023-04-10T04:11:07;4.43;;;1.90;;
77022;SDS011;65952;51.440;-2.054;2023-04-10T04:13:32;3.45;;;1.70;;
77022;SDS011;65952;51.440;-2.054;2023-04-10T04:15:58;3.78;;;1.88;;
77022;SDS011;65952;51.440;-2.054;2023-04-10T04:18:23;3.40;;;1.85;;
77022;SDS011;65952;51.440;-2.054;2023-04-10T04:21:04;3.47;;;1.73;;
77022;SDS011;65952;51.440;-2.054;2023-04-10T04:23:32;3.50;;;1.90;;
77022;SDS011;65952;51.440;-2.054;2023-04-10T04:25:58;3.20;;;1.80;;
77022;SDS011;65952;51.440;-2.054;2023-04-10T04:28:23;3.55;;;1.80;;
77022;SDS011;65952;51.440;-2.054;2023-04-10T04:30:49;4.07;;;2.03;;
77022;SDS011;65952;51.440;-2.054;2023-04-10T04:33:14;3.72;;;2.05;;
77022;SDS011;65952;51.440;-2.054;2023-04-10T04:39:01;4.45;;;1.92;;
77022;SDS011;65952;51.440;-2.054;2023-04-10T04:41:27;5.05;;;2.53;;
77022;SDS011;65952;51.440;-2.054;2023-04-10T04:43:56;7.00;;;2.70;;
77022;SDS011;65952;51.440;-2.054;2023-04-10T04:46:22;4.95;;;2.58;;
77022;SDS011;65952;51.440;-2.054;2023-04-10T04:48:48;5.13;;;2.60;;
77022;SDS011;65952;51.440;-2.054;2023-04-10T04:51:13;7.63;;;3.20;;
77022;SDS011;65952;51.440;-2.054;2023-04-10T04:53:39;9.85;;;2.90;;
77022;SDS011;65952;51.440;-2.054;2023-04-10T04:56:04;5.45;;;2.80;;
77022;SDS011;65952;51.440;-2.054;2023-04-10T04:58:30;6.53;;;2.80;;
77022;SDS011;65952;51.440;-2.054;2023-04-10T05:04:31;6.18;;;2.75;;
77022;SDS011;65952;51.440;-2.054;2023-04-10T05:06:57;6.63;;;2.83;;
77022;SDS011;65952;51.440;-2.054;2023-04-10T05:09:22;6.43;;;2.90;;
77022;SDS011;65952;51.440;-2.054;2023-04-10T05:14:32;6.38;;;2.88;;
77022;SDS011;65952;51.440;-2.054;2023-04-10T05:16:57;6.30;;;2.60;;
77022;SDS011;65952;51.440;-2.054;2023-04-10T05:19:23;5.57;;;2.80;;
77022;SDS011;65952;51.440;-2.054;2023-04-10T05:21:48;5.30;;;2.42;;
77022;SDS011;65952;51.440;-2.054;2023-04-10T05:24:14;5.22;;;2.60;;
77022;SDS011;65952;51.440;-2.054;2023-04-10T05:26:39;5.93;;;2.60;;
77022;SDS011;65952;51.440;-2.054;2023-04-10T05:29:06;5.68;;;2.85;;
77022;SDS011;65952;51.440;-2.054;2023-04-10T05:31:32;8.23;;;3.30;;
77022;SDS011;65952;51.440;-2.054;2023-04-10T05:33:57;5.03;;;2.90;;
77022;SDS011;65952;51.440;-2.054;2023-04-10T05:36:22;5.10;;;2.63;;
77022;SDS011;65952;51.440;-2.054;2023-04-10T05:38:48;4.82;;;2.35;;
77022;SDS011;65952;51.440;-2.054;2023-04-10T05:41:13;5.93;;;2.85;;
77022;SDS011;65952;51.440;-2.054;2023-04-10T05:43:38;5.53;;;2.88;;
77022;SDS011;65952;51.440;-2.054;2023-04-10T05:46:04;5.25;;;2.65;;
77022;SDS011;65952;51.440;-2.054;2023-04-10T05:48:29;5.13;;;2.60;;
77022;SDS011;65952;51.440;-2.054;2023-04-10T05:50:55;6.75;;;2.55;;
77022;SDS011;65952;51.440;-2.054;2023-04-10T05:53:20;4.95;;;2.70;;
77022;SDS011;65952;51.440;-2.054;2023-04-10T05:55:49;5.20;;;2.47;;
77022;SDS011;65952;51.440;-2.054;2023-04-10T05:58:18;6.05;;;2.53;;
77022;SDS011;65952;51.440;-2.054;2023-04-10T06:00:43;5.00;;;2.22;;
77022;SDS011;65952;51.440;-2.054;2023-04-10T06:03:09;4.32;;;2.20;;
77022;SDS011;65952;51.440;-2.054;2023-04-10T06:05:35;5.72;;;2.20;;
77022;SDS011;65952;51.440;-2.054;2023-04-10T06:08:00;4.63;;;2.08;;
77022;SDS011;65952;51.440;-2.054;2023-04-10T06:10:28;3.90;;;2.30;;
77022;SDS011;65952;51.440;-2.054;2023-04-10T06:12:54;4.53;;;2.13;;
77022;SDS011;65952;51.440;-2.054;2023-04-10T06:15:34;4.20;;;2.08;;
77022;SDS011;65952;51.440;-2.054;2023-04-10T06:17:59;5.07;;;2.45;;
77022;SDS011;65952;51.440;-2.054;2023-04-10T06:20:25;3.75;;;2.10;;
77022;SDS011;65952;51.440;-2.054;2023-04-10T06:22:50;3.90;;;1.95;;
77022;SDS011;65952;51.440;-2.054;2023-04-10T06:25:15;3.75;;;2.10;;
77022;SDS011;65952;51.440;-2.054;2023-04-10T06:27:41;3.55;;;1.92;;
77022;SDS011;65952;51.440;-2.054;2023-04-10T06:30:07;4.10;;;2.10;;
77022;SDS011;65952;51.440;-2.054;2023-04-10T06:32:33;3.72;;;2.05;;
77022;SDS011;65952;51.440;-2.054;2023-04-10T06:34:58;4.03;;;2.00;;
77022;SDS011;65952;51.440;-2.054;2023-04-10T06:37:27;3.80;;;1.90;;
77022;SDS011;65952;51.440;-2.054;2023-04-10T06:42:32;3.15;;;1.50;;
77022;SDS011;65952;51.440;-2.054;2023-04-10T06:44:58;3.40;;;1.73;;
77022;SDS011;65952;51.440;-2.054;2023-04-10T06:47:23;2.88;;;1.50;;
77022;SDS011;65952;51.440;-2.054;2023-04-10T06:49:49;2.85;;;1.60;;
77022;SDS011;65952;51.440;-2.054;2023-04-10T06:52:14;2.65;;;1.50;;
77022;SDS011;65952;51.440;-2.054;2023-04-10T06:54:40;3.00;;;1.70;;
77022;SDS011;65952;51.440;-2.054;2023-04-10T06:57:06;2.70;;;1.58;;
77022;SDS011;65952;51.440;-2.054;2023-04-10T06:59:31;3.25;;;1.60;;
77022;SDS011;65952;51.440;-2.054;2023-04-10T07:01:58;2.97;;;1.60;;
77022;SDS011;65952;51.440;-2.054;2023-04-10T07:04:24;3.28;;;1.60;;
77022;SDS011;65952;51.440;-2.054;2023-04-10T07:06:49;3.20;;;1.60;;
77022;SDS011;65952;51.440;-2.054;2023-04-10T07:09:15;2.65;;;1.50;;
77022;SDS011;65952;51.440;-2.054;2023-04-10T07:11:40;3.35;;;1.60;;
77022;SDS011;65952;51.440;-2.054;2023-04-10T07:14:05;2.95;;;1.42;;
77022;SDS011;65952;51.440;-2.054;2023-04-10T07:16:31;2.10;;;1.27;;
77022;SDS011;65952;51.440;-2.054;2023-04-10T07:18:56;3.55;;;1.60;;
77022;SDS011;65952;51.440;-2.054;2023-04-10T07:21:22;3.22;;;1.58;;
77022;SDS011;65952;51.440;-2.054;2023-04-10T07:23:47;2.10;;;1.30;;
77022;SDS011;65952;51.440;-2.054;2023-04-10T07:26:13;2.72;;;1.40;;
77022;SDS011;65952;51.440;-2.054;2023-04-10T07:28:39;3.88;;;1.50;;
77022;SDS011;65952;51.440;-2.054;2023-04-10T07:31:04;2.25;;;1.30;;
77022;SDS011;65952;51.440;-2.054;2023-04-10T07:33:31;1.92;;;1.25;;
77022;SDS011;65952;51.440;-2.054;2023-04-10T07:35:57;2.20;;;1.40;;
77022;SDS011;65952;51.440;-2.054;2023-04-10T07:38:22;2.70;;;1.40;;
77022;SDS011;65952;51.440;-2.054;2023-04-10T07:40:48;2.45;;;1.38;;
77022;SDS011;65952;51.440;-2.054;2023-04-10T07:43:19;2.35;;;1.40;;
77022;SDS011;65952;51.440;-2.054;2023-04-10T07:45:45;2.28;;;1.17;;
77022;SDS011;65952;51.440;-2.054;2023-04-10T07:48:11;1.48;;;1.13;;
77022;SDS011;65952;51.440;-2.054;2023-04-10T07:50:36;1.45;;;1.10;;
77022;SDS011;65952;51.440;-2.054;2023-04-10T07:53:02;2.08;;;1.30;;
77022;SDS011;65952;51.440;-2.054;2023-04-10T07:55:31;1.58;;;1.17;;
77022;SDS011;65952;51.440;-2.054;2023-04-10T07:58:01;1.83;;;1.20;;
77022;SDS011;65952;51.440;-2.054;2023-04-10T08:00:26;1.45;;;1.20;;
77022;SDS011;65952;51.440;-2.054;2023-04-10T08:02:52;1.50;;;1.13;;
77022;SDS011;65952;51.440;-2.054;2023-04-10T08:05:17;1.77;;;1.20;;
77022;SDS011;65952;51.440;-2.054;2023-04-10T08:07:42;3.17;;;1.30;;
77022;SDS011;65952;51.440;-2.054;2023-04-10T08:10:08;2.33;;;1.17;;
77022;SDS011;65952;51.440;-2.054;2023-04-10T08:12:33;2.00;;;1.30;;
77022;SDS011;65952;51.440;-2.054;2023-04-10T08:15:00;1.98;;;1.25;;
77022;SDS011;65952;51.440;-2.054;2023-04-10T08:17:25;3.80;;;1.50;;
77022;SDS011;65952;51.440;-2.054;2023-04-10T08:19:51;2.20;;;1.40;;
77022;SDS011;65952;51.440;-2.054;2023-04-10T08:22:16;3.08;;;1.60;;
77022;SDS011;65952;51.440;-2.054;2023-04-10T08:24:41;3.33;;;1.50;;
77022;SDS011;65952;51.440;-2.054;2023-04-10T08:27:07;3.30;;;1.65;;
77022;SDS011;65952;51.440;-2.054;2023-04-10T08:29:32;3.80;;;1.85;;
77022;SDS011;65952;51.440;-2.054;2023-04-10T08:31:57;3.58;;;1.80;;
77022;SDS011;65952;51.440;-2.054;2023-04-10T08:34:25;4.05;;;1.90;;
77022;SDS011;65952;51.440;-2.054;2023-04-10T08:36:51;4.30;;;1.90;;
77022;SDS011;65952;51.440;-2.054;2023-04-10T08:39:16;3.38;;;1.90;;
77022;SDS011;65952;51.440;-2.054;2023-04-10T08:41:42;4.75;;;1.77;;
77022;SDS011;65952;51.440;-2.054;2023-04-10T08:44:08;3.65;;;1.90;;
77022;SDS011;65952;51.440;-2.054;2023-04-10T08:46:35;3.90;;;1.98;;
77022;SDS011;65952;51.440;-2.054;2023-04-10T08:49:06;3.72;;;1.90;;
77022;SDS011;65952;51.440;-2.054;2023-04-10T08:51:35;4.07;;;1.90;;
77022;SDS011;65952;51.440;-2.054;2023-04-10T08:54:05;3.70;;;1.98;;
77022;SDS011;65952;51.440;-2.054;2023-04-10T08:56:34;3.20;;;1.80;;
77022;SDS011;65952;51.440;-2.054;2023-04-10T08:59:02;4.15;;;1.98;;
77022;SDS011;65952;51.440;-2.054;2023-04-10T09:01:27;3.13;;;1.88;;
77022;SDS011;65952;51.440;-2.054;2023-04-10T09:03:53;4.07;;;2.20;;
77022;SDS011;65952;51.440;-2.054;2023-04-10T09:06:18;4.10;;;1.90;;
77022;SDS011;65952;51.440;-2.054;2023-04-10T09:08:44;6.13;;;2.05;;
77022;SDS011;65952;51.440;-2.054;2023-04-10T09:11:10;2.22;;;1.30;;
77022;SDS011;65952;51.440;-2.054;2023-04-10T09:13:40;2.25;;;1.30;;
77022;SDS011;65952;51.440;-2.054;2023-04-10T09:16:08;4.00;;;1.55;;
77022;SDS011;65952;51.440;-2.054;2023-04-10T09:18:41;2.95;;;1.30;;
77022;SDS011;65952;51.440;-2.054;2023-04-10T09:21:08;1.50;;;1.10;;
77022;SDS011;65952;51.440;-2.054;2023-04-10T09:23:35;1.50;;;1.08;;
77022;SDS011;65952;51.440;-2.054;2023-04-10T09:26:01;2.03;;;1.15;;
77022;SDS011;65952;51.440;-2.054;2023-04-10T09:28:54;2.55;;;1.20;;
77022;SDS011;65952;51.440;-2.054;2023-04-10T09:36:32;2.70;;;1.30;;
77022;SDS011;65952;51.440;-2.054;2023-04-10T09:38:57;2.97;;;1.30;;
77022;SDS011;65952;51.440;-2.054;2023-04-10T09:41:23;2.60;;;1.08;;
77022;SDS011;65952;51.440;-2.054;2023-04-10T09:43:48;3.05;;;1.45;;
77022;SDS011;65952;51.440;-2.054;2023-04-10T09:46:24;3.67;;;1.38;;
77022;SDS011;65952;51.440;-2.054;2023-04-10T09:48:54;4.32;;;1.30;;
77022;SDS011;65952;51.440;-2.054;2023-04-10T09:51:30;2.47;;;1.40;;
77022;SDS011;65952;51.440;-2.054;2023-04-10T09:53:57;5.10;;;1.45;;
77022;SDS011;65952;51.440;-2.054;2023-04-10T09:56:24;5.05;;;1.50;;
77022;SDS011;65952;51.440;-2.054;2023-04-10T09:58:52;3.90;;;1.70;;
77022;SDS011;65952;51.440;-2.054;2023-04-10T10:01:22;3.78;;;1.90;;
77022;SDS011;65952;51.440;-2.054;2023-04-10T10:03:49;6.40;;;1.70;;
77022;SDS011;65952;51.440;-2.054;2023-04-10T10:06:15;4.63;;;1.45;;
77022;SDS011;65952;51.440;-2.054;2023-04-10T10:08:41;4.72;;;1.50;;
77022;SDS011;65952;51.440;-2.054;2023-04-10T10:11:07;3.42;;;1.60;;
77022;SDS011;65952;51.440;-2.054;2023-04-10T10:13:49;6.05;;;2.25;;
77022;SDS011;65952;51.440;-2.054;2023-04-10T10:16:24;6.00;;;1.90;;
77022;SDS011;65952;51.440;-2.054;2023-04-10T10:21:48;3.92;;;1.67;;
77022;SDS011;65952;51.440;-2.054;2023-04-10T10:24:15;4.97;;;1.95;;
77022;SDS011;65952;51.440;-2.054;2023-04-10T10:26:44;3.83;;;1.67;;
77022;SDS011;65952;51.440;-2.054;2023-04-10T10:29:11;6.28;;;2.20;;
77022;SDS011;65952;51.440;-2.054;2023-04-10T10:31:40;5.40;;;1.77;;
77022;SDS011;65952;51.440;-2.054;2023-04-10T10:34:06;5.93;;;2.22;;
77022;SDS011;65952;51.440;-2.054;2023-04-10T10:36:36;5.53;;;1.95;;
77022;SDS011;65952;51.440;-2.054;2023-04-10T10:39:07;4.53;;;2.00;;
77022;SDS011;65952;51.440;-2.054;2023-04-10T10:41:45;7.38;;;2.10;;
77022;SDS011;65952;51.440;-2.054;2023-04-10T10:44:19;9.25;;;1.95;;
77022;SDS011;65952;51.440;-2.054;2023-04-10T10:47:37;5.05;;;2.15;;
77022;SDS011;65952;51.440;-2.054;2023-04-10T10:49:52;8.48;;;2.22;;
77022;SDS011;65952;51.440;-2.054;2023-04-10T10:58:06;6.95;;;2.22;;
77022;SDS011;65952;51.440;-2.054;2023-04-10T11:01:14;8.75;;;2.42;;
77022;SDS011;65952;51.440;-2.054;2023-04-10T11:11:00;8.48;;;2.53;;
77022;SDS011;65952;51.440;-2.054;2023-04-10T11:13:37;9.88;;;3.17;;
77022;SDS011;65952;51.440;-2.054;2023-04-10T11:16:05;6.57;;;2.38;;
77022;SDS011;65952;51.440;-2.054;2023-04-10T11:31:42;11.57;;;2.60;;
77022;SDS011;65952;51.440;-2.054;2023-04-10T11:34:09;7.45;;;2.92;;
77022;SDS011;65952;51.440;-2.054;2023-04-10T11:36:39;7.72;;;2.33;;
77022;SDS011;65952;51.440;-2.054;2023-04-10T11:39:06;6.57;;;2.30;;
77022;SDS011;65952;51.440;-2.054;2023-04-10T11:41:39;7.88;;;2.10;;
77022;SDS011;65952;51.440;-2.054;2023-04-10T11:46:50;6.97;;;2.30;;
77022;SDS011;65952;51.440;-2.054;2023-04-10T11:49:17;5.38;;;2.00;;
77022;SDS011;65952;51.440;-2.054;2023-04-10T11:51:45;6.30;;;2.08;;
77022;SDS011;65952;51.440;-2.054;2023-04-10T11:54:16;5.43;;;1.90;;
77022;SDS011;65952;51.440;-2.054;2023-04-10T11:56:45;8.10;;;2.47;;
77022;SDS011;65952;51.440;-2.054;2023-04-10T11:59:25;9.88;;;2.50;;
77022;SDS011;65952;51.440;-2.054;2023-04-10T12:01:51;6.28;;;2.47;;
77022;SDS011;65952;51.440;-2.054;2023-04-10T12:04:21;6.68;;;2.50;;
77022;SDS011;65952;51.440;-2.054;2023-04-10T12:06:51;6.03;;;2.13;;
77022;SDS011;65952;51.440;-2.054;2023-04-10T12:09:20;10.90;;;2.60;;
77022;SDS011;65952;51.440;-2.054;2023-04-10T12:11:56;11.57;;;3.50;;
77022;SDS011;65952;51.440;-2.054;2023-04-10T12:14:28;8.23;;;2.45;;
77022;SDS011;65952;51.440;-2.054;2023-04-10T12:19:21;7.28;;;1.90;;
77022;SDS011;65952;51.440;-2.054;2023-04-10T12:21:47;9.02;;;1.95;;
77022;SDS011;65952;51.440;-2.054;2023-04-10T12:24:15;6.78;;;2.00;;
77022;SDS011;65952;51.440;-2.054;2023-04-10T12:27:04;5.43;;;2.05;;
77022;SDS011;65952;51.440;-2.054;2023-04-10T12:29:30;6.70;;;2.30;;
77022;SDS011;65952;51.440;-2.054;2023-04-10T12:31:55;7.55;;;2.22;;
77022;SDS011;65952;51.440;-2.054;2023-04-10T12:34:21;7.55;;;2.10;;
77022;SDS011;65952;51.440;-2.054;2023-04-10T12:36:50;4.80;;;2.00;;
77022;SDS011;65952;51.440;-2.054;2023-04-10T12:39:23;8.15;;;2.10;;
77022;SDS011;65952;51.440;-2.054;2023-04-10T12:41:49;5.05;;;2.00;;
77022;SDS011;65952;51.440;-2.054;2023-04-10T12:44:15;7.07;;;1.83;;
77022;SDS011;65952;51.440;-2.054;2023-04-10T12:46:40;3.85;;;1.48;;
77022;SDS011;65952;51.440;-2.054;2023-04-10T12:49:14;5.13;;;1.60;;
77022;SDS011;65952;51.440;-2.054;2023-04-10T12:51:44;7.40;;;1.70;;
77022;SDS011;65952;51.440;-2.054;2023-04-10T12:54:24;5.47;;;1.50;;
77022;SDS011;65952;51.440;-2.054;2023-04-10T12:56:51;6.88;;;1.50;;
77022;SDS011;65952;51.440;-2.054;2023-04-10T12:59:17;3.30;;;1.55;;
77022;SDS011;65952;51.440;-2.054;2023-04-10T13:01:43;3.08;;;1.40;;
77022;SDS011;65952;51.440;-2.054;2023-04-10T13:04:08;6.85;;;1.40;;
77022;SDS011;65952;51.440;-2.054;2023-04-10T13:06:40;7.07;;;2.08;;
77022;SDS011;65952;51.440;-2.054;2023-04-10T13:09:07;5.18;;;1.40;;
77022;SDS011;65952;51.440;-2.054;2023-04-10T13:11:32;5.90;;;1.40;;
77022;SDS011;65952;51.440;-2.054;2023-04-10T13:13:58;3.83;;;1.40;;
77022;SDS011;65952;51.440;-2.054;2023-04-10T13:16:24;4.22;;;1.10;;
77022;SDS011;65952;51.440;-2.054;2023-04-10T13:18:49;2.80;;;1.17;;
77022;SDS011;65952;51.440;-2.054;2023-04-10T13:21:15;3.40;;;1.35;;
77022;SDS011;65952;51.440;-2.054;2023-04-10T13:23:43;1.73;;;1.00;;
77022;SDS011;65952;51.440;-2.054;2023-04-10T13:26:11;5.68;;;1.58;;
77022;SDS011;65952;51.440;-2.054;2023-04-10T13:28:36;5.20;;;1.50;;
77022;SDS011;65952;51.440;-2.054;2023-04-10T13:31:01;7.68;;;1.60;;
77022;SDS011;65952;51.440;-2.054;2023-04-10T13:33:27;3.55;;;1.65;;
77022;SDS011;65952;51.440;-2.054;2023-04-10T13:35:52;5.47;;;1.65;;
77022;SDS011;65952;51.440;-2.054;2023-04-10T13:38:17;9.95;;;1.88;;
77022;SDS011;65952;51.440;-2.054;2023-04-10T13:40:43;8.02;;;2.17;;
77022;SDS011;65952;51.440;-2.054;2023-04-10T13:43:09;8.13;;;1.95;;
77022;SDS011;65952;51.440;-2.054;2023-04-10T13:45:34;8.77;;;1.90;;
77022;SDS011;65952;51.440;-2.054;2023-04-10T13:47:59;5.03;;;1.90;;
77022;SDS011;65952;51.440;-2.054;2023-04-10T13:50:25;6.65;;;1.80;;
77022;SDS011;65952;51.440;-2.054;2023-04-10T13:52:50;3.95;;;1.90;;
77022;SDS011;65952;51.440;-2.054;2023-04-10T13:55:16;4.40;;;1.50;;
77022;SDS011;65952;51.440;-2.054;2023-04-10T13:57:41;4.53;;;1.55;;
77022;SDS011;65952;51.440;-2.054;2023-04-10T14:00:07;7.35;;;2.03;;
77022;SDS011;65952;51.440;-2.054;2023-04-10T14:02:34;3.90;;;1.80;;
77022;SDS011;65952;51.440;-2.054;2023-04-10T14:04:59;6.63;;;2.08;;
77022;SDS011;65952;51.440;-2.054;2023-04-10T14:07:25;2.70;;;1.50;;
77022;SDS011;65952;51.440;-2.054;2023-04-10T14:09:50;4.82;;;1.90;;
77022;SDS011;65952;51.440;-2.054;2023-04-10T14:12:15;4.35;;;1.80;;
77022;SDS011;65952;51.440;-2.054;2023-04-10T14:14:42;3.88;;;1.60;;
77022;SDS011;65952;51.440;-2.054;2023-04-10T14:17:08;6.05;;;1.70;;
77022;SDS011;65952;51.440;-2.054;2023-04-10T14:19:33;7.85;;;1.58;;
77022;SDS011;65952;51.440;-2.054;2023-04-10T14:22:00;4.13;;;1.48;;
77022;SDS011;65952;51.440;-2.054;2023-04-10T14:24:25;6.55;;;2.10;;
77022;SDS011;65952;51.440;-2.054;2023-04-10T14:26:51;4.35;;;1.50;;
77022;SDS011;65952;51.440;-2.054;2023-04-10T14:29:21;5.80;;;1.70;;
77022;SDS011;65952;51.440;-2.054;2023-04-10T14:31:47;5.03;;;1.58;;
77022;SDS011;65952;51.440;-2.054;2023-04-10T14:34:12;4.97;;;1.38;;
77022;SDS011;65952;51.440;-2.054;2023-04-10T14:36:38;7.82;;;2.00;;
77022;SDS011;65952;51.440;-2.054;2023-04-10T14:39:03;8.60;;;1.67;;
77022;SDS011;65952;51.440;-2.054;2023-04-10T14:41:29;4.75;;;1.50;;
77022;SDS011;65952;51.440;-2.054;2023-04-10T14:43:55;7.80;;;2.10;;
77022;SDS011;65952;51.440;-2.054;2023-04-10T14:46:20;8.95;;;2.25;;
77022;SDS011;65952;51.440;-2.054;2023-04-10T14:48:45;9.05;;;2.00;;
77022;SDS011;65952;51.440;-2.054;2023-04-10T14:51:11;7.93;;;1.80;;
77022;SDS011;65952;51.440;-2.054;2023-04-10T14:53:37;6.60;;;2.00;;
77022;SDS011;65952;51.440;-2.054;2023-04-10T14:56:12;8.95;;;2.45;;
77022;SDS011;65952;51.440;-2.054;2023-04-10T14:58:39;5.57;;;1.80;;
77022;SDS011;65952;51.440;-2.054;2023-04-10T15:01:08;5.60;;;1.85;;
77022;SDS011;65952;51.440;-2.054;2023-04-10T15:03:35;10.35;;;2.20;;
77022;SDS011;65952;51.440;-2.054;2023-04-10T15:06:00;8.35;;;2.50;;
77022;SDS011;65952;51.440;-2.054;2023-04-10T15:08:26;6.18;;;2.08;;
77022;SDS011;65952;51.440;-2.054;2023-04-10T15:10:51;8.60;;;2.28;;
77022;SDS011;65952;51.440;-2.054;2023-04-10T15:13:20;10.38;;;2.58;;
77022;SDS011;65952;51.440;-2.054;2023-04-10T15:15:46;7.75;;;2.10;;
77022;SDS011;65952;51.440;-2.054;2023-04-10T15:18:12;13.48;;;2.03;;
77022;SDS011;65952;51.440;-2.054;2023-04-10T15:20:38;8.13;;;2.42;;
77022;SDS011;65952;51.440;-2.054;2023-04-10T15:23:03;7.78;;;2.45;;
77022;SDS011;65952;51.440;-2.054;2023-04-10T15:25:30;6.50;;;2.00;;
77022;SDS011;65952;51.440;-2.054;2023-04-10T15:27:56;8.45;;;2.40;;
77022;SDS011;65952;51.440;-2.054;2023-04-10T15:30:22;9.25;;;2.45;;
77022;SDS011;65952;51.440;-2.054;2023-04-10T15:32:47;8.20;;;2.20;;
77022;SDS011;65952;51.440;-2.054;2023-04-10T15:35:13;7.90;;;2.10;;
77022;SDS011;65952;51.440;-2.054;2023-04-10T15:37:38;6.32;;;2.15;;
77022;SDS011;65952;51.440;-2.054;2023-04-10T15:40:03;6.82;;;2.28;;
77022;SDS011;65952;51.440;-2.054;2023-04-10T15:42:30;7.68;;;2.60;;
77022;SDS011;65952;51.440;-2.054;2023-04-10T15:44:58;6.15;;;1.75;;
77022;SDS011;65952;51.440;-2.054;2023-04-10T15:47:23;10.35;;;2.40;;